Time;durP1;ratioP1;P1;durP2;ratioP2;P2;SDS_P1;SDS_P2;PMS_P1;PMS_P2;Temp;Humidity;BMP_temperature;BMP_pressure;BME280_temperature;BME280_humidity;BME280_pressure;Samples;Min_cycle;Max_cycle;Signal;HPM_P1;HPM_P2
2021/05/07 00:01:54;;;;;;;;;16.75;15.50;;;;;;;;3724268;37;21632;-62
2021/05/07 00:04:21;;;;;;;;;17.00;16.00;;;;;;;;3724305;37;18565;-63
2021/05/07 00:06:48;;;;;;;;;17.75;16.75;;;;;;;;3724308;37;21606;-63
2021/05/07 00:09:15;;;;;;;;;15.75;15.75;;;;;;;;3724808;37;21596;-62
2021/05/07 00:11:41;;;;;;;;;15.25;15.25;;;;;;;;3724467;38;21617;-61
2021/05/07 00:14:07;;;;;;;;;23.00;21.50;;;;;;;;3724824;37;21617;-60
2021/05/07 00:16:35;;;;;;;;;17.75;15.75;;;;;;;;3724901;37;18540;-63
2021/05/07 00:19:04;;;;;;;;;15.00;13.75;;;;;;;;3725055;38;20505;-61
2021/05/07 00:21:31;;;;;;;;;19.25;17.50;;;;;;;;3725244;37;20475;-60
2021/05/07 00:23:58;;;;;;;;;16.25;15.25;;;;;;;;3725071;37;20482;-62
2021/05/07 00:26:24;;;;;;;;;16.00;14.75;;;;;;;;3725112;37;20510;-61
2021/05/07 00:28:50;;;;;;;;;16.75;16.75;;;;;;;;3725449;38;20490;-62
2021/05/07 00:31:17;;;;;;;;;15.25;15.00;;;;;;;;3725523;37;18333;-63
2021/05/07 00:33:43;;;;;;;;;15.00;14.00;;;;;;;;3725557;38;20458;-62
2021/05/07 00:36:09;;;;;;;;;16.00;15.75;;;;;;;;3725454;38;20460;-61
2021/05/07 00:38:37;;;;;;;;;16.50;16.50;;;;;;;;3730839;37;20450;-61
2021/05/07 00:41:09;;;;;;;;;17.00;17.00;;;;;;;;3737707;38;18324;-62
2021/05/07 00:43:37;;;;;;;;;15.75;15.00;;;;;;;;3738011;38;20453;-62
2021/05/07 00:46:03;;;;;;;;;18.00;17.50;;;;;;;;3730486;37;20558;-61
2021/05/07 00:48:30;;;;;;;;;14.00;14.00;;;;;;;;3728132;38;21053;-63
2021/05/07 00:50:56;;;;;;;;;14.25;14.25;;;;;;;;3731579;38;18318;-64
2021/05/07 00:53:27;;;;;;;;;15.50;14.50;;;;;;;;3731731;38;20453;-62
2021/05/07 00:55:54;;;;;;;;;13.25;12.50;;;;;;;;3732572;38;20767;-62
2021/05/07 00:58:20;;;;;;;;;15.00;13.50;;;;;;;;3725183;38;20434;-61
2021/05/07 01:00:48;;;;;;;;;13.75;13.75;;;;;;;;3725696;38;20449;-63
2021/05/07 01:03:13;;;;;;;;;18.00;15.75;;;;;;;;3725564;37;20437;-64
2021/05/07 01:05:39;;;;;;;;;15.00;15.00;;;;;;;;3725740;38;20435;-62
2021/05/07 01:08:05;;;;;;;;;16.25;14.75;;;;;;;;3725883;37;18285;-63
2021/05/07 01:10:32;;;;;;;;;10.50;10.00;;;;;;;;3725960;37;18295;-62
2021/05/07 01:12:58;;;;;;;;;13.50;13.50;;;;;;;;3725653;37;18296;-64
2021/05/07 01:15:26;;;;;;;;;10.50;9.50;;;;;;;;3725814;38;20386;-62
2021/05/07 01:17:52;;;;;;;;;14.50;13.25;;;;;;;;3724931;37;21422;-61
2021/05/07 01:20:29;;;;;;;;;13.00;11.75;;;;;;;;3724906;38;21492;-63
2021/05/07 01:22:59;;;;;;;;;11.75;11.00;;;;;;;;3724478;37;21554;-62
2021/05/07 01:25:26;;;;;;;;;13.25;13.00;;;;;;;;3725006;38;20998;-62
2021/05/07 01:27:56;;;;;;;;;14.50;13.50;;;;;;;;3724794;37;21489;-63
2021/05/07 01:30:24;;;;;;;;;12.25;10.25;;;;;;;;3724821;37;21506;-62
2021/05/07 01:32:50;;;;;;;;;14.00;11.00;;;;;;;;3724714;37;21490;-63
2021/05/07 01:35:26;;;;;;;;;17.50;15.75;;;;;;;;3724791;38;21443;-64
2021/05/07 01:38:00;;;;;;;;;10.00;9.00;;;;;;;;3725071;38;21490;-62
2021/05/07 01:40:27;;;;;;;;;11.50;11.50;;;;;;;;3725132;37;21457;-62
2021/05/07 01:42:53;;;;;;;;;12.25;12.25;;;;;;;;3724944;38;21488;-61
2021/05/07 01:45:21;;;;;;;;;13.25;13.25;;;;;;;;3724882;37;21430;-61
2021/05/07 01:47:47;;;;;;;;;13.00;12.00;;;;;;;;3724820;37;21483;-63
2021/05/07 01:50:15;;;;;;;;;11.50;11.50;;;;;;;;3724899;38;21416;-63
2021/05/07 01:52:42;;;;;;;;;9.50;9.25;;;;;;;;3724371;37;21438;-64
2021/05/07 01:55:11;;;;;;;;;10.75;10.75;;;;;;;;3724422;38;21342;-61
2021/05/07 01:57:38;;;;;;;;;10.50;9.00;;;;;;;;3724833;37;21470;-64
2021/05/07 02:00:08;;;;;;;;;14.00;8.75;;;;;;;;3724962;37;21371;-63
2021/05/07 02:02:33;;;;;;;;;12.00;11.75;;;;;;;;3724861;37;21409;-62
2021/05/07 02:04:59;;;;;;;;;10.25;10.00;;;;;;;;3724832;38;21429;-63
2021/05/07 02:07:27;;;;;;;;;10.00;10.00;;;;;;;;3725074;38;18367;-64
2021/05/07 02:09:53;;;;;;;;;11.75;11.75;;;;;;;;3724664;37;18391;-62
2021/05/07 02:12:19;;;;;;;;;7.00;6.25;;;;;;;;3724889;37;21391;-64
2021/05/07 02:14:44;;;;;;;;;11.00;11.00;;;;;;;;3724917;38;18361;-64
2021/05/07 02:17:10;;;;;;;;;10.25;10.25;;;;;;;;3725003;37;18367;-63
2021/05/07 02:19:36;;;;;;;;;8.50;8.00;;;;;;;;3725081;37;18345;-63
2021/05/07 02:22:02;;;;;;;;;2.00;1.50;;;;;;;;3725134;37;18377;-62
2021/05/07 02:24:30;;;;;;;;;9.50;9.25;;;;;;;;3725007;37;18378;-63
2021/05/07 02:26:56;;;;;;;;;7.25;6.50;;;;;;;;3724917;38;21334;-63
2021/05/07 02:29:22;;;;;;;;;9.75;9.00;;;;;;;;3724913;37;21281;-61
2021/05/07 02:31:48;;;;;;;;;11.25;11.25;;;;;;;;3725107;37;18355;-61
2021/05/07 02:34:14;;;;;;;;;12.00;12.00;;;;;;;;3724828;38;18362;-63
2021/05/07 02:36:40;;;;;;;;;10.00;10.00;;;;;;;;3724698;37;18348;-64
2021/05/07 02:39:07;;;;;;;;;12.75;12.25;;;;;;;;3724846;38;21356;-63
2021/05/07 02:41:35;;;;;;;;;9.50;9.00;;;;;;;;3724875;37;21375;-62
2021/05/07 02:44:03;;;;;;;;;10.75;10.25;;;;;;;;3724792;38;21345;-63
2021/05/07 02:46:29;;;;;;;;;10.25;10.00;;;;;;;;3724327;37;21358;-63
2021/05/07 02:48:55;;;;;;;;;11.75;10.00;;;;;;;;3724755;38;21313;-63
2021/05/07 02:51:21;;;;;;;;;10.50;10.50;;;;;;;;3724916;38;21306;-63
2021/05/07 02:53:48;;;;;;;;;9.75;9.75;;;;;;;;3724937;37;18310;-63
2021/05/07 02:56:14;;;;;;;;;8.50;8.50;;;;;;;;3724603;37;21495;-63
2021/05/07 02:58:41;;;;;;;;;12.50;12.50;;;;;;;;3724825;38;21245;-63
2021/05/07 03:01:09;;;;;;;;;10.25;10.00;;;;;;;;3724961;38;18307;-63
2021/05/07 03:03:34;;;;;;;;;9.00;9.00;;;;;;;;3725011;37;21348;-64
2021/05/07 03:06:00;;;;;;;;;10.50;10.00;;;;;;;;3725026;37;18306;-63
2021/05/07 03:08:26;;;;;;;;;10.75;10.75;;;;;;;;3724952;37;18310;-61
2021/05/07 03:10:52;;;;;;;;;9.75;9.50;;;;;;;;3724869;37;18318;-63
2021/05/07 03:13:18;;;;;;;;;10.75;10.50;;;;;;;;3725003;38;18315;-62
2021/05/07 03:15:43;;;;;;;;;13.00;12.00;;;;;;;;3724750;38;18277;-64
2021/05/07 03:18:20;;;;;;;;;12.25;12.25;;;;;;;;3724974;38;18294;-64
2021/05/07 03:20:46;;;;;;;;;11.00;11.00;;;;;;;;3724646;38;18305;-64
2021/05/07 03:23:14;;;;;;;;;9.25;8.50;;;;;;;;3724939;38;21190;-63
2021/05/07 03:25:40;;;;;;;;;8.75;7.50;;;;;;;;3724336;38;21422;-63
2021/05/07 03:28:06;;;;;;;;;10.25;9.25;;;;;;;;3724921;37;21241;-62
2021/05/07 03:30:33;;;;;;;;;11.50;11.00;;;;;;;;3726322;38;21228;-62
2021/05/07 03:32:59;;;;;;;;;9.75;9.75;;;;;;;;3725231;37;21275;-62
2021/05/07 03:35:27;;;;;;;;;10.50;10.50;;;;;;;;3725045;38;21286;-63
2021/05/07 03:38:01;;;;;;;;;10.50;9.00;;;;;;;;3724631;37;21200;-62
2021/05/07 03:40:30;;;;;;;;;8.50;8.25;;;;;;;;3724931;37;21560;-60
2021/05/07 03:42:55;;;;;;;;;9.00;9.00;;;;;;;;3724833;37;21208;-63
2021/05/07 03:45:25;;;;;;;;;7.00;7.00;;;;;;;;3724915;38;18250;-63
2021/05/07 03:47:50;;;;;;;;;11.50;10.00;;;;;;;;3724925;37;18265;-62
2021/05/07 03:50:17;;;;;;;;;11.25;10.00;;;;;;;;3724930;37;21406;-63
2021/05/07 03:52:43;;;;;;;;;11.50;11.50;;;;;;;;3724580;37;18229;-63
2021/05/07 03:55:10;;;;;;;;;11.50;10.75;;;;;;;;3724786;38;21247;-63
2021/05/07 03:57:36;;;;;;;;;10.00;10.00;;;;;;;;3724954;37;21265;-63
2021/05/07 04:00:07;;;;;;;;;12.75;12.75;;;;;;;;3724942;38;21260;-62
2021/05/07 04:02:40;;;;;;;;;10.00;9.75;;;;;;;;3724488;37;21234;-63
2021/05/07 04:05:06;;;;;;;;;12.00;11.50;;;;;;;;3724473;37;21232;-65
2021/05/07 04:07:32;;;;;;;;;12.50;12.00;;;;;;;;3724943;38;21260;-63
2021/05/07 04:10:04;;;;;;;;;8.25;8.25;;;;;;;;3724876;37;21539;-63
2021/05/07 04:15:33;;;;;;;;;18.50;17.75;;;;;;;;3724756;38;21235;-62
2021/05/07 04:18:00;;;;;;;;;14.75;14.75;;;;;;;;3724884;37;21261;-63
2021/05/07 04:20:27;;;;;;;;;46.00;40.00;;;;;;;;3724261;37;18204;-64
2021/05/07 04:22:56;;;;;;;;;24.75;24.50;;;;;;;;3725102;37;21369;-63
2021/05/07 04:25:22;;;;;;;;;12.00;11.00;;;;;;;;3724313;38;21231;-61
2021/05/07 04:27:48;;;;;;;;;16.25;13.75;;;;;;;;3725021;37;18210;-64
2021/05/07 04:30:15;;;;;;;;;14.50;14.50;;;;;;;;3724918;37;18204;-63
2021/05/07 04:32:40;;;;;;;;;12.25;12.25;;;;;;;;3724424;37;21196;-61
2021/05/07 04:35:06;;;;;;;;;12.25;12.25;;;;;;;;3725144;37;21261;-63
2021/05/07 04:37:32;;;;;;;;;16.25;16.25;;;;;;;;3724777;38;18193;-62
2021/05/07 04:39:58;;;;;;;;;16.00;15.25;;;;;;;;3724632;37;21250;-63
2021/05/07 04:42:24;;;;;;;;;20.25;19.50;;;;;;;;3724557;38;18184;-63
2021/05/07 04:44:49;;;;;;;;;46.50;39.75;;;;;;;;3724496;38;18165;-63
2021/05/07 04:47:15;;;;;;;;;31.75;30.00;;;;;;;;3724614;37;18164;-63
2021/05/07 04:49:41;;;;;;;;;17.75;16.00;;;;;;;;3724687;38;18161;-62
2021/05/07 04:52:08;;;;;;;;;14.75;14.00;;;;;;;;3724654;37;21214;-65
2021/05/07 04:54:34;;;;;;;;;19.25;19.00;;;;;;;;3725242;38;18171;-63
2021/05/07 04:57:00;;;;;;;;;17.75;17.00;;;;;;;;3724893;37;21245;-63
2021/05/07 04:59:26;;;;;;;;;21.50;20.25;;;;;;;;3725135;38;21226;-63
2021/05/07 05:01:52;;;;;;;;;14.25;13.25;;;;;;;;3724941;38;21235;-63
2021/05/07 05:04:19;;;;;;;;;20.00;19.00;;;;;;;;3725146;37;18166;-63
2021/05/07 05:06:47;;;;;;;;;18.50;18.50;;;;;;;;3724885;38;18148;-66
2021/05/07 05:09:14;;;;;;;;;16.00;16.00;;;;;;;;3724668;38;21208;-62
2021/05/07 05:11:40;;;;;;;;;12.50;11.50;;;;;;;;3724628;37;21197;-64
2021/05/07 05:14:06;;;;;;;;;20.75;20.75;;;;;;;;3725053;37;21167;-65
2021/05/07 05:16:32;;;;;;;;;22.25;21.25;;;;;;;;3724817;37;21215;-63
2021/05/07 05:18:58;;;;;;;;;16.50;16.00;;;;;;;;3725058;37;18136;-64
2021/05/07 05:21:23;;;;;;;;;19.75;19.00;;;;;;;;3724960;37;18127;-64
2021/05/07 05:23:50;;;;;;;;;16.00;15.50;;;;;;;;3725117;37;18111;-63
2021/05/07 05:26:21;;;;;;;;;16.50;12.50;;;;;;;;3724478;37;18110;-65
2021/05/07 05:28:48;;;;;;;;;13.25;13.25;;;;;;;;3724646;38;21178;-65
2021/05/07 05:31:14;;;;;;;;;16.75;16.25;;;;;;;;3724589;38;21171;-64
2021/05/07 05:33:40;;;;;;;;;19.25;18.75;;;;;;;;3725107;37;21197;-65
2021/05/07 05:36:07;;;;;;;;;14.75;14.75;;;;;;;;3724988;37;18105;-64
2021/05/07 05:38:33;;;;;;;;;22.50;20.75;;;;;;;;3724773;37;18103;-65
2021/05/07 05:40:59;;;;;;;;;18.50;17.25;;;;;;;;3725166;37;21175;-63
2021/05/07 05:43:25;;;;;;;;;18.25;18.00;;;;;;;;3725239;38;18094;-63
2021/05/07 05:45:50;;;;;;;;;19.75;19.00;;;;;;;;3725190;37;18105;-65
2021/05/07 05:48:18;;;;;;;;;21.75;21.25;;;;;;;;3725036;38;18113;-65
2021/05/07 05:50:45;;;;;;;;;22.00;21.25;;;;;;;;3725263;38;18060;-63
2021/05/07 05:53:11;;;;;;;;;18.00;16.50;;;;;;;;3724983;37;21147;-63
2021/05/07 05:55:38;;;;;;;;;14.25;14.25;;;;;;;;3724382;38;21169;-64
2021/05/07 05:58:06;;;;;;;;;11.00;11.00;;;;;;;;3724849;37;18067;-63
2021/05/07 06:00:32;;;;;;;;;13.75;13.00;;;;;;;;3724569;37;21248;-62
2021/05/07 06:02:57;;;;;;;;;14.00;14.00;;;;;;;;3725023;38;21168;-65
2021/05/07 06:05:24;;;;;;;;;15.00;14.25;;;;;;;;3725036;37;21219;-65
2021/05/07 06:07:50;;;;;;;;;20.75;20.75;;;;;;;;3725270;38;18335;-66
2021/05/07 06:10:17;;;;;;;;;22.00;22.00;;;;;;;;3727912;38;21117;-65
2021/05/07 06:12:43;;;;;;;;;16.00;15.25;;;;;;;;3725410;37;18053;-64
2021/05/07 06:15:09;;;;;;;;;12.75;12.00;;;;;;;;3725156;38;21140;-66
2021/05/07 06:17:36;;;;;;;;;13.25;12.50;;;;;;;;3724953;38;21155;-63
2021/05/07 06:20:04;;;;;;;;;13.50;12.25;;;;;;;;3725093;37;21155;-64
2021/05/07 06:22:31;;;;;;;;;12.00;12.00;;;;;;;;3725117;38;21153;-68
2021/05/07 06:24:57;;;;;;;;;14.75;14.00;;;;;;;;3724821;37;21093;-63
2021/05/07 06:27:23;;;;;;;;;12.25;12.25;;;;;;;;3724931;38;21158;-65
2021/05/07 06:29:50;;;;;;;;;12.25;12.25;;;;;;;;3724861;38;21107;-69
2021/05/07 06:32:15;;;;;;;;;13.50;13.50;;;;;;;;3725105;38;21115;-64
2021/05/07 06:34:42;;;;;;;;;25.75;24.75;;;;;;;;3725019;38;18044;-65
2021/05/07 06:37:08;;;;;;;;;16.50;16.25;;;;;;;;3724618;38;18046;-66
2021/05/07 06:39:34;;;;;;;;;14.00;12.75;;;;;;;;3724978;37;21079;-65
2021/05/07 06:42:00;;;;;;;;;13.50;12.50;;;;;;;;3725202;37;18015;-65
2021/05/07 06:44:26;;;;;;;;;9.50;8.00;;;;;;;;3725216;38;18016;-64
2021/05/07 06:46:52;;;;;;;;;10.25;9.00;;;;;;;;3725058;37;21037;-62
2021/05/07 06:49:18;;;;;;;;;13.25;13.25;;;;;;;;3725028;37;17999;-62
2021/05/07 06:51:44;;;;;;;;;10.50;10.50;;;;;;;;3725104;37;21105;-64
2021/05/07 06:54:09;;;;;;;;;9.00;8.00;;;;;;;;3725039;37;21043;-63
2021/05/07 06:56:35;;;;;;;;;13.50;13.50;;;;;;;;3724844;37;17972;-63
2021/05/07 06:59:02;;;;;;;;;14.75;14.25;;;;;;;;3725347;38;18000;-62
2021/05/07 07:01:33;;;;;;;;;15.00;15.00;;;;;;;;3724658;38;21102;-66
2021/05/07 07:04:00;;;;;;;;;14.75;13.50;;;;;;;;3724586;37;21032;-64
2021/05/07 07:06:26;;;;;;;;;12.75;10.25;;;;;;;;3724992;37;21049;-65
2021/05/07 07:08:52;;;;;;;;;11.50;10.25;;;;;;;;3725121;38;21028;-65
2021/05/07 07:11:18;;;;;;;;;5.75;5.25;;;;;;;;3724916;37;21021;-66
2021/05/07 07:13:45;;;;;;;;;9.00;8.00;;;;;;;;3725074;37;20902;-64
2021/05/07 07:16:17;;;;;;;;;11.25;11.25;;;;;;;;3724530;37;17951;-64
2021/05/07 07:18:43;;;;;;;;;12.75;12.75;;;;;;;;3724804;37;21006;-65
2021/05/07 07:21:12;;;;;;;;;10.50;10.50;;;;;;;;3724833;37;21038;-63
2021/05/07 07:23:39;;;;;;;;;12.50;11.00;;;;;;;;3725066;37;21025;-65
2021/05/07 07:26:05;;;;;;;;;24.00;21.50;;;;;;;;3725453;38;21055;-63
2021/05/07 07:28:32;;;;;;;;;15.00;15.00;;;;;;;;3725075;38;21009;-66
2021/05/07 07:30:58;;;;;;;;;13.25;12.25;;;;;;;;3725143;38;21042;-65
2021/05/07 07:33:24;;;;;;;;;17.25;16.00;;;;;;;;3725096;38;21080;-67
2021/05/07 07:35:50;;;;;;;;;15.75;13.75;;;;;;;;3725074;38;17925;-64
2021/05/07 07:38:15;;;;;;;;;13.75;13.00;;;;;;;;3725325;38;17922;-63
2021/05/07 07:40:41;;;;;;;;;14.00;13.50;;;;;;;;3725261;37;21073;-65
2021/05/07 07:43:07;;;;;;;;;13.75;11.00;;;;;;;;3725384;37;17917;-64
2021/05/07 07:45:33;;;;;;;;;10.75;10.00;;;;;;;;3725191;38;17941;-63
2021/05/07 07:47:59;;;;;;;;;16.25;15.50;;;;;;;;3725119;38;17929;-64
2021/05/07 07:50:25;;;;;;;;;12.25;12.00;;;;;;;;3725123;37;17900;-64
2021/05/07 07:52:51;;;;;;;;;5.00;5.00;;;;;;;;3725275;38;21013;-64
2021/05/07 07:55:16;;;;;;;;;12.00;11.50;;;;;;;;3725302;37;20897;-64
2021/05/07 07:57:42;;;;;;;;;8.75;8.00;;;;;;;;3725205;37;21074;-63
2021/05/07 08:00:10;;;;;;;;;9.75;9.75;;;;;;;;3725204;38;17886;-64
2021/05/07 08:02:36;;;;;;;;;11.50;11.25;;;;;;;;3725191;37;17892;-67
2021/05/07 08:05:02;;;;;;;;;12.00;11.00;;;;;;;;3724956;37;21008;-65
2021/05/07 08:07:28;;;;;;;;;10.50;10.50;;;;;;;;3725049;37;17905;-63
2021/05/07 08:09:54;;;;;;;;;13.00;11.00;;;;;;;;3725066;38;20939;-65
2021/05/07 08:12:19;;;;;;;;;9.25;9.25;;;;;;;;3725462;37;17899;-63
2021/05/07 08:14:45;;;;;;;;;8.75;8.75;;;;;;;;3725069;37;17894;-64
2021/05/07 08:17:11;;;;;;;;;15.25;14.25;;;;;;;;3724870;38;17868;-63
2021/05/07 08:19:43;;;;;;;;;16.75;15.50;;;;;;;;3725336;38;17861;-64
2021/05/07 08:22:08;;;;;;;;;21.00;20.00;;;;;;;;3725420;38;17870;-64
2021/05/07 08:24:34;;;;;;;;;10.00;10.00;;;;;;;;3725026;37;20940;-64
2021/05/07 08:27:00;;;;;;;;;10.25;10.25;;;;;;;;3725059;37;17851;-62
2021/05/07 08:29:26;;;;;;;;;10.75;10.75;;;;;;;;3725206;38;17853;-62
2021/05/07 08:31:52;;;;;;;;;12.00;11.00;;;;;;;;3725208;37;17844;-64
2021/05/07 08:34:20;;;;;;;;;9.25;9.00;;;;;;;;3725237;37;20931;-63
2021/05/07 08:36:47;;;;;;;;;11.00;10.75;;;;;;;;3725342;38;20978;-63
2021/05/07 08:39:13;;;;;;;;;12.25;11.00;;;;;;;;3725002;38;21121;-64
2021/05/07 08:41:45;;;;;;;;;11.75;10.50;;;;;;;;3725017;38;20909;-65
2021/05/07 08:44:10;;;;;;;;;14.25;13.00;;;;;;;;3724565;37;17848;-65
2021/05/07 08:46:40;;;;;;;;;11.75;10.75;;;;;;;;3725053;38;20936;-63
2021/05/07 08:49:06;;;;;;;;;10.00;10.00;;;;;;;;3726533;38;17854;-63
2021/05/07 08:51:32;;;;;;;;;10.00;9.00;;;;;;;;3725962;38;21105;-64
2021/05/07 08:53:58;;;;;;;;;11.25;11.25;;;;;;;;3725763;37;20838;-63
2021/05/07 08:56:24;;;;;;;;;10.75;10.75;;;;;;;;3725466;38;17818;-64
2021/05/07 08:58:50;;;;;;;;;10.67;10.33;;;;;;;;3725358;37;17829;-64
2021/05/07 09:01:17;;;;;;;;;11.00;10.25;;;;;;;;3725341;38;20947;-64
2021/05/07 09:03:47;;;;;;;;;9.00;9.00;;;;;;;;3725370;37;20961;-64
2021/05/07 09:06:23;;;;;;;;;10.75;10.75;;;;;;;;3725423;38;17801;-63
2021/05/07 09:08:50;;;;;;;;;14.75;13.50;;;;;;;;3725524;38;20931;-65
2021/05/07 09:11:19;;;;;;;;;15.25;14.75;;;;;;;;3725042;38;20965;-64
2021/05/07 09:13:45;;;;;;;;;14.50;13.00;;;;;;;;3724228;37;20952;-66
2021/05/07 09:16:13;;;;;;;;;11.00;10.00;;;;;;;;3724937;38;21000;-66
2021/05/07 09:18:43;;;;;;;;;12.25;11.50;;;;;;;;3724490;37;20864;-64
2021/05/07 09:21:10;;;;;;;;;10.75;10.00;;;;;;;;3725182;37;20916;-64
2021/05/07 09:23:42;;;;;;;;;10.75;10.75;;;;;;;;3725071;37;20848;-64
2021/05/07 09:26:08;;;;;;;;;10.50;10.25;;;;;;;;3724881;38;20854;-64
2021/05/07 09:28:34;;;;;;;;;16.00;16.00;;;;;;;;3725151;37;20897;-64
2021/05/07 09:31:12;;;;;;;;;20.50;20.00;;;;;;;;3724881;38;20882;-63
2021/05/07 09:33:43;;;;;;;;;14.00;14.00;;;;;;;;3724493;37;20876;-63
2021/05/07 09:36:21;;;;;;;;;14.00;12.25;;;;;;;;3724527;38;20919;-63
2021/05/07 09:38:47;;;;;;;;;17.25;16.50;;;;;;;;3724959;37;20877;-64
2021/05/07 09:41:13;;;;;;;;;20.50;18.50;;;;;;;;3724714;38;20902;-64
2021/05/07 09:43:39;;;;;;;;;18.00;15.00;;;;;;;;3724613;37;20861;-63
2021/05/07 09:46:05;;;;;;;;;13.25;12.50;;;;;;;;3724718;37;20861;-65
2021/05/07 09:48:31;;;;;;;;;15.75;14.75;;;;;;;;3725041;38;17774;-64
2021/05/07 09:51:05;;;;;;;;;18.00;17.50;;;;;;;;3724597;38;20917;-64
2021/05/07 09:53:38;;;;;;;;;13.00;12.75;;;;;;;;3724750;38;20877;-64
2021/05/07 09:56:11;;;;;;;;;12.75;12.75;;;;;;;;3724900;37;20874;-63
2021/05/07 09:58:43;;;;;;;;;14.75;14.00;;;;;;;;3726764;37;20848;-65
2021/05/07 10:01:09;;;;;;;;;11.50;11.00;;;;;;;;3727905;38;20852;-65
2021/05/07 10:03:35;;;;;;;;;9.50;8.75;;;;;;;;3724884;38;20890;-62
2021/05/07 10:06:02;;;;;;;;;10.50;9.75;;;;;;;;3725114;37;20816;-63
2021/05/07 10:08:29;;;;;;;;;10.00;9.25;;;;;;;;3724938;38;20817;-62
2021/05/07 10:10:58;;;;;;;;;9.00;8.75;;;;;;;;3724950;38;20798;-63
2021/05/07 10:13:26;;;;;;;;;9.50;8.75;;;;;;;;3724947;38;20783;-64
2021/05/07 10:16:06;;;;;;;;;11.25;11.25;;;;;;;;3724916;37;20730;-63
2021/05/07 10:18:34;;;;;;;;;9.25;9.25;;;;;;;;3724528;37;20886;-63
2021/05/07 10:21:04;;;;;;;;;14.00;12.25;;;;;;;;3725042;38;20812;-62
2021/05/07 10:23:32;;;;;;;;;10.00;10.00;;;;;;;;3724880;37;20768;-63
2021/05/07 10:26:00;;;;;;;;;10.75;10.00;;;;;;;;3724295;37;20798;-62
2021/05/07 10:28:27;;;;;;;;;11.00;10.75;;;;;;;;3724745;37;20795;-63
2021/05/07 10:31:09;;;;;;;;;9.00;8.25;;;;;;;;3725038;37;20760;-62
2021/05/07 10:33:38;;;;;;;;;9.50;9.25;;;;;;;;3724791;37;20696;-63
2021/05/07 10:36:04;;;;;;;;;10.50;9.75;;;;;;;;3724778;37;20698;-66
2021/05/07 10:38:30;;;;;;;;;2.00;2.00;;;;;;;;3724800;38;20815;-63
2021/05/07 10:41:22;;;;;;;;;6.25;5.75;;;;;;;;3724875;38;20716;-64
2021/05/07 10:43:52;;;;;;;;;7.25;6.75;;;;;;;;3725105;37;20687;-64
2021/05/07 10:46:24;;;;;;;;;5.50;5.50;;;;;;;;3724791;37;20657;-63
2021/05/07 10:49:01;;;;;;;;;9.00;8.00;;;;;;;;3725014;37;20678;-64
2021/05/07 10:51:27;;;;;;;;;7.00;7.00;;;;;;;;3724962;37;20668;-64
2021/05/07 10:54:13;;;;;;;;;6.75;6.25;;;;;;;;3724893;37;20606;-64
2021/05/07 10:56:43;;;;;;;;;5.00;5.00;;;;;;;;3725015;37;20658;-66
2021/05/07 10:59:19;;;;;;;;;8.00;8.00;;;;;;;;3724963;37;20612;-64
2021/05/07 11:02:01;;;;;;;;;10.50;9.00;;;;;;;;3725053;37;20667;-63
2021/05/07 11:04:27;;;;;;;;;9.00;8.25;;;;;;;;3724851;37;20667;-63
2021/05/07 11:07:03;;;;;;;;;7.75;7.75;;;;;;;;3724729;37;20691;-63
2021/05/07 11:09:29;;;;;;;;;9.00;9.00;;;;;;;;3725086;37;20640;-63
2021/05/07 11:12:02;;;;;;;;;7.00;7.00;;;;;;;;3725013;38;20654;-65
2021/05/07 11:14:29;;;;;;;;;6.75;6.75;;;;;;;;3725093;37;20646;-65
2021/05/07 11:16:56;;;;;;;;;9.25;9.25;;;;;;;;3724882;37;21627;-64
2021/05/07 11:19:29;;;;;;;;;19.50;19.00;;;;;;;;3724831;37;20714;-66
2021/05/07 11:21:56;;;;;;;;;7.00;7.00;;;;;;;;3725031;37;21747;-65
2021/05/07 11:24:23;;;;;;;;;7.00;7.00;;;;;;;;3725087;37;20631;-65
2021/05/07 11:26:49;;;;;;;;;7.00;7.00;;;;;;;;3725452;38;21622;-66
2021/05/07 11:29:25;;;;;;;;;6.25;6.25;;;;;;;;3726860;38;21636;-65
2021/05/07 11:31:51;;;;;;;;;8.50;8.50;;;;;;;;3725568;37;18658;-65
2021/05/07 11:34:26;;;;;;;;;9.00;8.00;;;;;;;;3725032;38;21693;-66
2021/05/07 11:36:58;;;;;;;;;6.00;6.00;;;;;;;;3724938;37;21618;-66
2021/05/07 11:39:23;;;;;;;;;5.00;5.00;;;;;;;;3724935;38;21612;-65
2021/05/07 11:41:49;;;;;;;;;7.25;7.00;;;;;;;;3724942;37;21644;-66
2021/05/07 11:44:15;;;;;;;;;11.25;10.75;;;;;;;;3725066;38;18606;-64
2021/05/07 11:46:41;;;;;;;;;9.25;9.25;;;;;;;;3724520;38;18637;-66
2021/05/07 11:49:07;;;;;;;;;9.00;9.00;;;;;;;;3725110;37;18629;-65
2021/05/07 11:51:34;;;;;;;;;7.00;7.00;;;;;;;;3725117;37;21651;-69
2021/05/07 11:54:00;;;;;;;;;8.50;8.50;;;;;;;;3724916;38;18590;-66
2021/05/07 11:56:26;;;;;;;;;9.75;8.50;;;;;;;;3724935;38;21606;-65
2021/05/07 11:58:53;;;;;;;;;0.00;0.00;;;;;;;;3725200;37;21549;-65
2021/05/07 12:01:19;;;;;;;;;5.75;5.75;;;;;;;;3724910;37;21756;-64
2021/05/07 12:03:47;;;;;;;;;9.50;9.00;;;;;;;;3724969;37;21585;-65
2021/05/07 12:06:30;;;;;;;;;6.00;6.00;;;;;;;;3725029;37;21615;-65
2021/05/07 12:09:07;;;;;;;;;7.00;6.25;;;;;;;;3725031;37;21606;-64
2021/05/07 12:11:33;;;;;;;;;3.25;3.25;;;;;;;;3725161;38;21607;-65
2021/05/07 12:14:08;;;;;;;;;6.00;5.00;;;;;;;;3724866;38;21589;-65
2021/05/07 12:16:34;;;;;;;;;6.50;6.00;;;;;;;;3725118;38;18592;-64
2021/05/07 12:19:00;;;;;;;;;9.00;9.00;;;;;;;;3724710;37;21542;-64
2021/05/07 12:21:26;;;;;;;;;7.00;7.00;;;;;;;;3724965;37;18586;-66
2021/05/07 12:23:52;;;;;;;;;8.00;8.00;;;;;;;;3724922;37;18562;-66
2021/05/07 12:26:23;;;;;;;;;14.75;14.75;;;;;;;;3724840;38;21539;-65
2021/05/07 12:28:55;;;;;;;;;10.00;10.00;;;;;;;;3725059;37;21674;-65
2021/05/07 12:31:28;;;;;;;;;10.50;10.00;;;;;;;;3724893;38;21601;-65
2021/05/07 12:33:56;;;;;;;;;9.50;9.50;;;;;;;;3725012;37;21581;-65
2021/05/07 12:36:23;;;;;;;;;14.25;13.00;;;;;;;;3725040;37;21657;-64
2021/05/07 12:38:49;;;;;;;;;15.25;13.00;;;;;;;;3725001;37;21657;-65
2021/05/07 12:41:23;;;;;;;;;11.00;11.00;;;;;;;;3724937;37;21643;-66
2021/05/07 12:43:50;;;;;;;;;14.00;13.75;;;;;;;;3724626;38;21620;-63
2021/05/07 12:46:21;;;;;;;;;15.50;14.00;;;;;;;;3724376;38;21601;-65
2021/05/07 12:48:48;;;;;;;;;11.50;11.50;;;;;;;;3724567;37;21651;-65
2021/05/07 12:51:15;;;;;;;;;10.00;10.00;;;;;;;;3724464;37;21747;-63
2021/05/07 12:53:42;;;;;;;;;10.00;9.50;;;;;;;;3724459;37;21677;-65
2021/05/07 12:56:08;;;;;;;;;9.50;9.00;;;;;;;;3724835;38;21591;-65
2021/05/07 12:58:34;;;;;;;;;8.50;8.50;;;;;;;;3724908;38;21486;-64
2021/05/07 13:01:00;;;;;;;;;10.00;8.50;;;;;;;;3725125;37;21497;-64
2021/05/07 13:03:26;;;;;;;;;10.00;10.00;;;;;;;;3724578;38;18490;-64
2021/05/07 13:05:52;;;;;;;;;8.00;7.00;;;;;;;;3724855;38;18526;-65
2021/05/07 13:08:18;;;;;;;;;6.50;6.50;;;;;;;;3724924;37;21460;-65
2021/05/07 13:10:46;;;;;;;;;29.50;27.00;;;;;;;;3725010;37;18514;-64
2021/05/07 13:13:15;;;;;;;;;12.00;11.00;;;;;;;;3724910;38;18515;-65
2021/05/07 13:15:42;;;;;;;;;8.00;8.00;;;;;;;;3724218;37;21578;-64
2021/05/07 13:18:09;;;;;;;;;15.25;15.25;;;;;;;;3724419;38;21652;-65
2021/05/07 13:20:35;;;;;;;;;11.00;11.00;;;;;;;;3724360;38;21590;-64
2021/05/07 13:23:01;;;;;;;;;6.50;6.50;;;;;;;;3725084;38;21547;-64
2021/05/07 13:25:27;;;;;;;;;13.00;13.00;;;;;;;;3724866;38;21652;-63
2021/05/07 13:27:53;;;;;;;;;8.75;8.75;;;;;;;;3724910;38;21570;-64
2021/05/07 13:30:19;;;;;;;;;9.75;9.75;;;;;;;;3725027;38;18494;-64
2021/05/07 13:32:45;;;;;;;;;10.50;8.75;;;;;;;;3724693;38;18487;-64
2021/05/07 13:35:11;;;;;;;;;6.00;6.00;;;;;;;;3724960;37;21452;-65
2021/05/07 13:37:39;;;;;;;;;8.00;7.75;;;;;;;;3724834;38;21480;-66
2021/05/07 13:40:07;;;;;;;;;6.00;6.00;;;;;;;;3724960;37;21459;-65
2021/05/07 13:42:32;;;;;;;;;7.75;6.25;;;;;;;;3724593;38;21465;-63
2021/05/07 13:45:02;;;;;;;;;7.25;7.25;;;;;;;;3724909;38;21445;-63
2021/05/07 13:47:28;;;;;;;;;9.25;8.75;;;;;;;;3724953;38;18461;-64
2021/05/07 13:49:53;;;;;;;;;9.50;9.25;;;;;;;;3724914;37;21480;-64
2021/05/07 13:52:19;;;;;;;;;7.25;7.25;;;;;;;;3724933;37;18450;-64
2021/05/07 13:54:47;;;;;;;;;9.50;9.50;;;;;;;;3724965;38;18424;-65
2021/05/07 13:57:13;;;;;;;;;13.00;12.50;;;;;;;;3724534;38;21554;-64
2021/05/07 13:59:39;;;;;;;;;8.25;8.25;;;;;;;;3724545;38;21526;-65
2021/05/07 14:02:16;;;;;;;;;7.00;7.00;;;;;;;;3725073;38;18424;-66
2021/05/07 14:04:43;;;;;;;;;7.50;7.50;;;;;;;;3725105;38;21394;-65
2021/05/07 14:07:09;;;;;;;;;8.25;8.25;;;;;;;;3725158;37;21453;-66
2021/05/07 14:09:35;;;;;;;;;7.50;6.50;;;;;;;;3727025;37;21395;-65
2021/05/07 14:12:01;;;;;;;;;5.00;5.00;;;;;;;;3725744;38;21419;-64
2021/05/07 14:14:28;;;;;;;;;5.50;5.50;;;;;;;;3725199;37;18411;-64
2021/05/07 14:16:54;;;;;;;;;18.00;18.00;;;;;;;;3724569;38;21374;-63
2021/05/07 14:19:20;;;;;;;;;7.75;7.00;;;;;;;;3724861;38;21483;-62
2021/05/07 14:21:51;;;;;;;;;6.00;6.00;;;;;;;;3725050;37;18392;-65
2021/05/07 14:24:18;;;;;;;;;6.25;6.25;;;;;;;;3725141;37;18392;-65
2021/05/07 14:26:44;;;;;;;;;9.00;9.00;;;;;;;;3725059;38;21359;-64
2021/05/07 14:29:10;;;;;;;;;9.50;9.00;;;;;;;;3725186;37;21497;-64
2021/05/07 14:31:37;;;;;;;;;9.00;9.00;;;;;;;;3725207;38;18377;-64